Time;durP1;ratioP1;P1;durP2;ratioP2;P2;SDS_P1;SDS_P2;PMS_P1;PMS_P2;Temp;Humidity;BMP_temperature;BMP_pressure;BME280_temperature;BME280_humidity;BME280_pressure;Samples;Min_cycle;Max_cycle;Signal;HPM_P1;HPM_P2
2022/01/04 00:00:40;;;;;;;4.00;1.40;;;7.60;99.90;;;;;;2114019;28;20186;-65
2022/01/04 00:01:41;;;;;;;1.50;1.10;;;7.60;99.90;;;;;;2114090;28;20669;-67
2022/01/04 00:02:42;;;;;;;1.37;1.23;;;7.60;99.90;;;;;;2114018;28;20280;-66
2022/01/04 00:03:43;;;;;;;2.08;1.48;;;7.50;99.90;;;;;;2114232;28;20540;-66
2022/01/04 00:04:44;;;;;;;2.00;1.17;;;7.50;99.90;;;;;;2113889;28;20269;-65
2022/01/04 00:05:44;;;;;;;2.73;1.47;;;7.50;99.90;;;;;;2113999;28;20230;-66
2022/01/04 00:06:46;;;;;;;2.47;1.37;;;7.50;99.90;;;;;;2114063;28;20177;-63
2022/01/04 00:07:46;;;;;;;4.28;1.42;;;7.50;99.90;;;;;;2114148;28;20214;-66
2022/01/04 00:08:47;;;;;;;2.13;1.20;;;7.50;99.90;;;;;;2114085;28;20174;-65
2022/01/04 00:09:51;;;;;;;2.17;1.50;;;7.50;99.90;;;;;;2114322;28;20235;-65
2022/01/04 00:10:55;;;;;;;2.17;1.17;;;7.50;99.90;;;;;;2114037;28;20205;-65
2022/01/04 00:14:15;;;;;;;1.10;1.00;;;7.50;99.90;;;;;;2114128;28;20202;-67
2022/01/04 00:15:16;;;;;;;1.70;1.17;;;7.50;99.90;;;;;;2114080;28;20168;-64
2022/01/04 00:16:17;;;;;;;1.10;1.00;;;7.50;99.90;;;;;;2114241;28;20174;-64
2022/01/04 00:17:18;;;;;;;1.17;0.80;;;7.50;99.90;;;;;;2113843;28;20177;-63
2022/01/04 00:18:19;;;;;;;1.20;1.10;;;7.50;99.90;;;;;;2112310;28;20692;-62
2022/01/04 00:19:19;;;;;;;2.25;0.80;;;7.50;99.90;;;;;;2114303;28;20174;-65
2022/01/04 00:20:21;;;;;;;1.20;1.10;;;7.50;99.90;;;;;;2114136;28;20177;-65
2022/01/04 00:21:22;;;;;;;1.65;0.95;;;7.50;99.90;;;;;;2114125;28;20275;-65
2022/01/04 00:22:23;;;;;;;1.10;1.00;;;7.50;99.90;;;;;;2114074;28;20184;-65
2022/01/04 00:23:23;;;;;;;0.80;0.80;;;7.50;99.90;;;;;;2114544;28;20177;-65
2022/01/04 00:24:24;;;;;;;1.80;1.00;;;7.50;99.90;;;;;;2114252;28;20173;-64
2022/01/04 00:25:25;;;;;;;0.90;0.80;;;7.60;99.90;;;;;;2113979;28;20167;-64
2022/01/04 00:26:26;;;;;;;0.93;0.70;;;7.70;99.90;;;;;;2114578;28;20780;-63
2022/01/04 00:27:27;;;;;;;0.98;0.82;;;7.60;99.90;;;;;;2114233;28;20182;-65
2022/01/04 00:28:28;;;;;;;1.33;1.03;;;7.60;99.90;;;;;;2114511;28;20178;-63
2022/01/04 00:29:28;;;;;;;0.60;0.60;;;7.50;99.90;;;;;;2114507;28;20185;-64
2022/01/04 00:30:29;;;;;;;1.00;0.90;;;7.60;99.90;;;;;;2114205;28;20170;-63
2022/01/04 00:31:30;;;;;;;0.80;0.80;;;7.50;99.90;;;;;;2114091;28;20217;-64
2022/01/04 00:32:31;;;;;;;0.90;0.60;;;7.50;99.90;;;;;;2114541;28;20184;-64
2022/01/04 00:33:31;;;;;;;0.90;0.80;;;7.50;99.90;;;;;;2114279;28;20186;-65
2022/01/04 00:34:32;;;;;;;1.10;1.00;;;7.50;99.90;;;;;;2114045;28;20198;-65
2022/01/04 00:35:34;;;;;;;1.00;0.90;;;7.60;99.90;;;;;;2114204;28;20193;-65
2022/01/04 00:36:35;;;;;;;1.95;0.90;;;7.60;99.90;;;;;;2114055;28;20181;-65
2022/01/04 00:37:35;;;;;;;1.00;0.97;;;7.50;99.90;;;;;;2114012;28;20194;-65
2022/01/04 00:38:36;;;;;;;1.10;0.70;;;7.50;99.90;;;;;;2114269;28;20678;-64
2022/01/04 00:39:37;;;;;;;1.43;0.90;;;7.50;99.90;;;;;;2114309;28;20186;-65
2022/01/04 00:40:38;;;;;;;0.63;0.63;;;7.50;99.90;;;;;;2114707;28;20181;-65
2022/01/04 00:41:38;;;;;;;1.47;0.70;;;7.40;99.90;;;;;;2114154;28;20202;-65
2022/01/04 00:42:39;;;;;;;1.30;0.90;;;7.40;99.90;;;;;;2114334;28;20198;-63
2022/01/04 00:43:40;;;;;;;2.00;0.90;;;7.40;99.90;;;;;;2114064;28;20182;-65
2022/01/04 00:44:40;;;;;;;1.10;1.00;;;7.50;99.90;;;;;;2114366;28;20182;-65
2022/01/04 00:45:41;;;;;;;1.90;1.07;;;7.50;99.90;;;;;;2114151;28;20188;-65
2022/01/04 00:46:42;;;;;;;1.53;1.03;;;7.50;99.90;;;;;;2114029;28;20181;-65
2022/01/04 00:49:09;;;;;;;1.00;0.90;;;7.50;99.90;;;;;;2113740;28;20183;-64
2022/01/04 00:49:12;;;;;;;1.23;1.10;;;7.50;99.90;;;;;;2114017;28;20182;-69
2022/01/04 00:50:13;;;;;;;1.60;1.00;;;7.50;99.90;;;;;;2113959;28;20176;-67
2022/01/04 00:51:14;;;;;;;1.50;1.05;;;7.50;99.90;;;;;;2114753;28;20225;-66
2022/01/04 00:52:17;;;;;;;1.27;0.93;;;7.60;99.90;;;;;;2115965;28;20197;-65
2022/01/04 00:53:17;;;;;;;1.75;0.90;;;7.60;99.90;;;;;;2115844;28;20261;-65
2022/01/04 00:54:20;;;;;;;1.73;0.90;;;7.60;99.90;;;;;;2115549;28;20256;-66
2022/01/04 00:55:21;;;;;;;1.63;1.15;;;7.60;99.90;;;;;;2115803;28;20182;-65
2022/01/04 00:56:22;;;;;;;1.00;0.90;;;7.60;99.90;;;;;;2115725;28;20233;-67
2022/01/04 00:57:23;;;;;;;1.35;0.98;;;7.60;99.90;;;;;;2115928;28;20182;-66
2022/01/04 00:58:23;;;;;;;2.90;1.10;;;7.50;99.90;;;;;;2115201;28;20680;-66
2022/01/04 00:59:24;;;;;;;1.30;1.10;;;7.50;99.90;;;;;;2115476;28;20520;-66
2022/01/04 01:00:25;;;;;;;1.20;0.97;;;7.50;99.90;;;;;;2116139;28;20195;-66
2022/01/04 01:01:26;;;;;;;1.70;1.02;;;7.60;99.90;;;;;;2115575;28;20190;-66
2022/01/04 01:02:27;;;;;;;1.30;1.17;;;7.70;99.90;;;;;;2115547;28;20174;-66
2022/01/04 01:03:28;;;;;;;1.37;1.00;;;7.70;99.90;;;;;;2116074;28;20172;-66
2022/01/04 01:04:28;;;;;;;1.40;1.00;;;7.80;99.90;;;;;;2116221;28;20184;-65
2022/01/04 01:05:29;;;;;;;1.00;0.90;;;7.70;99.90;;;;;;2116232;28;20188;-66
2022/01/04 01:06:30;;;;;;;1.27;1.03;;;7.70;99.90;;;;;;2116183;28;20243;-66
2022/01/04 01:07:31;;;;;;;2.38;1.20;;;7.70;99.90;;;;;;2115398;28;20170;-67
2022/01/04 01:08:32;;;;;;;2.07;0.97;;;7.70;99.90;;;;;;2115260;28;20187;-66
2022/01/04 01:09:38;;;;;;;1.17;1.03;;;7.70;99.90;;;;;;2116030;28;20174;-66
2022/01/04 01:10:43;;;;;;;1.60;1.05;;;7.80;99.90;;;;;;2116091;28;20191;-66
2022/01/04 01:11:44;;;;;;;2.75;1.30;;;7.80;99.90;;;;;;2115929;28;20198;-65
2022/01/04 01:12:44;;;;;;;5.60;1.23;;;7.80;99.90;;;;;;2116121;28;20647;-66
2022/01/04 01:13:45;;;;;;;2.50;1.07;;;7.80;99.90;;;;;;2115952;28;20538;-66
2022/01/04 01:14:46;;;;;;;1.33;1.00;;;7.80;99.90;;;;;;2115394;28;20176;-66
2022/01/04 01:15:47;;;;;;;1.80;1.20;;;7.80;99.90;;;;;;2115425;28;20206;-66
2022/01/04 01:16:48;;;;;;;1.35;0.93;;;7.80;99.90;;;;;;2116066;28;20180;-66
2022/01/04 01:17:49;;;;;;;2.27;1.03;;;7.80;99.90;;;;;;2115900;28;20190;-66
2022/01/04 01:18:49;;;;;;;1.63;1.03;;;7.80;99.90;;;;;;2116135;28;20213;-66
2022/01/04 01:19:50;;;;;;;1.77;1.10;;;7.90;99.90;;;;;;2116015;28;20177;-66
2022/01/04 01:20:51;;;;;;;1.37;1.20;;;7.90;99.90;;;;;;2116061;28;20178;-66
2022/01/04 01:21:52;;;;;;;1.92;1.20;;;7.80;99.90;;;;;;2115470;28;20176;-66
2022/01/04 01:22:52;;;;;;;1.60;1.40;;;7.90;99.90;;;;;;2115352;28;20205;-66
2022/01/04 01:23:53;;;;;;;1.40;1.10;;;7.90;99.90;;;;;;2116116;28;20170;-66
2022/01/04 01:24:54;;;;;;;2.27;1.50;;;8.00;99.90;;;;;;2115770;28;20174;-65
2022/01/04 01:25:55;;;;;;;1.33;1.10;;;8.00;99.90;;;;;;2115945;28;20645;-69
2022/01/04 01:26:56;;;;;;;1.27;1.10;;;8.00;99.90;;;;;;2116013;28;20181;-66
2022/01/04 01:27:57;;;;;;;2.30;1.10;;;8.00;99.90;;;;;;2115987;28;20182;-66
2022/01/04 01:28:57;;;;;;;2.63;1.10;;;8.00;99.90;;;;;;2116112;28;20187;-66
2022/01/04 01:29:58;;;;;;;1.40;1.30;;;7.90;99.90;;;;;;2115902;28;20192;-66
2022/01/04 01:30:59;;;;;;;4.40;1.20;;;8.00;99.90;;;;;;2115969;28;20176;-67
2022/01/04 01:31:59;;;;;;;4.03;1.20;;;7.90;99.90;;;;;;2115805;28;20182;-67
2022/01/04 01:33:00;;;;;;;1.73;1.33;;;8.00;99.90;;;;;;2116035;28;20244;-65
2022/01/04 01:34:01;;;;;;;1.90;1.40;;;8.00;99.90;;;;;;2123604;27;20185;-66
2022/01/04 01:35:03;;;;;;;1.70;1.40;;;8.10;99.90;;;;;;2123852;27;20183;-67
2022/01/04 01:36:04;;;;;;;2.38;1.30;;;8.10;99.90;;;;;;2115719;27;20179;-66
2022/01/04 01:37:04;;;;;;;1.90;1.50;;;8.10;99.90;;;;;;2115715;28;20174;-67
2022/01/04 01:38:08;;;;;;;1.77;1.20;;;8.10;99.90;;;;;;2115889;28;20188;-67
2022/01/04 01:39:09;;;;;;;4.75;1.60;;;8.10;99.90;;;;;;2115279;28;20182;-67
2022/01/04 01:40:11;;;;;;;1.60;1.20;;;8.20;99.90;;;;;;2115248;28;20580;-67
2022/01/04 01:41:11;;;;;;;1.75;1.33;;;8.10;99.90;;;;;;2115790;28;20192;-67
2022/01/04 01:42:12;;;;;;;1.90;1.50;;;8.10;99.90;;;;;;2115838;28;20655;-66
2022/01/04 01:43:13;;;;;;;1.03;0.90;;;8.10;99.90;;;;;;2115941;28;20185;-66
2022/01/04 01:44:14;;;;;;;2.00;1.30;;;8.10;99.90;;;;;;2115851;28;20264;-66
2022/01/04 01:45:16;;;;;;;2.43;1.20;;;8.10;99.90;;;;;;2115583;28;20185;-66
2022/01/04 01:46:17;;;;;;;2.53;1.67;;;8.10;99.90;;;;;;2115689;28;20539;-66
2022/01/04 01:47:18;;;;;;;2.73;1.07;;;8.20;99.90;;;;;;2115725;28;20210;-67
2022/01/04 01:48:19;;;;;;;2.13;1.30;;;8.20;99.90;;;;;;2115169;28;20628;-66
2022/01/04 01:49:19;;;;;;;2.07;1.30;;;8.20;99.90;;;;;;2115141;28;20186;-66
2022/01/04 01:50:21;;;;;;;1.63;1.47;;;8.10;99.90;;;;;;2115762;28;20435;-66
2022/01/04 01:51:27;;;;;;;1.80;1.17;;;8.10;99.90;;;;;;2115005;28;20205;-66
2022/01/04 01:52:27;;;;;;;3.05;1.50;;;8.10;99.90;;;;;;2107462;28;20159;-67
2022/01/04 01:53:28;;;;;;;1.50;1.10;;;8.10;99.90;;;;;;2115038;28;20193;-68
2022/01/04 01:54:29;;;;;;;2.00;1.20;;;8.20;99.90;;;;;;2115318;28;20208;-67
2022/01/04 01:55:30;;;;;;;2.50;1.40;;;8.20;99.90;;;;;;2115559;28;20177;-66
2022/01/04 01:56:31;;;;;;;1.67;1.20;;;8.10;99.90;;;;;;2115180;28;20181;-66
2022/01/04 01:57:32;;;;;;;1.90;1.40;;;8.10;99.90;;;;;;2114876;28;20201;-67
2022/01/04 01:58:33;;;;;;;1.30;1.10;;;8.10;99.90;;;;;;2115017;28;20551;-66
2022/01/04 01:59:33;;;;;;;1.50;1.10;;;8.20;99.90;;;;;;2114989;28;20479;-67
2022/01/04 02:00:34;;;;;;;1.43;1.03;;;8.20;99.90;;;;;;2114877;28;20186;-67
2022/01/04 02:01:35;;;;;;;1.40;1.10;;;8.20;99.90;;;;;;2115498;28;20192;-65
2022/01/04 02:02:35;;;;;;;1.40;1.23;;;8.20;99.90;;;;;;2114996;28;20177;-67
2022/01/04 02:03:36;;;;;;;3.20;1.07;;;8.30;99.90;;;;;;2115414;28;20305;-67
2022/01/04 02:04:37;;;;;;;3.03;1.50;;;8.30;99.90;;;;;;2115364;28;20180;-67
2022/01/04 02:05:37;;;;;;;1.57;1.20;;;8.30;99.90;;;;;;2114850;28;20383;-67
2022/01/04 02:06:38;;;;;;;2.03;1.00;;;8.30;99.90;;;;;;2114856;28;20192;-67
2022/01/04 02:07:42;;;;;;;1.73;1.07;;;8.30;99.90;;;;;;2114805;28;20304;-66
2022/01/04 02:08:42;;;;;;;1.13;0.90;;;8.40;99.90;;;;;;2114898;28;20748;-67
2022/01/04 02:09:50;;;;;;;3.87;1.00;;;8.40;99.90;;;;;;2115556;28;20177;-66
2022/01/04 02:10:52;;;;;;;1.00;0.82;;;8.40;99.90;;;;;;2115556;28;20174;-67
2022/01/04 02:11:54;;;;;;;1.60;1.00;;;8.40;99.90;;;;;;2114864;28;20198;-67
2022/01/04 02:12:55;;;;;;;1.85;0.93;;;8.40;99.90;;;;;;2106768;28;20190;-67
2022/01/04 02:13:57;;;;;;;1.23;1.00;;;8.40;99.90;;;;;;2114767;28;20257;-66
2022/01/04 02:14:58;;;;;;;1.80;1.20;;;8.30;99.90;;;;;;2114641;28;20277;-66
2022/01/04 02:15:59;;;;;;;2.80;1.08;;;8.40;99.90;;;;;;2114704;28;20916;-67
2022/01/04 02:17:00;;;;;;;2.20;1.10;;;8.40;99.90;;;;;;2115303;28;20182;-66
2022/01/04 02:18:00;;;;;;;2.60;1.20;;;8.30;99.90;;;;;;2115278;28;20199;-66
2022/01/04 02:19:05;;;;;;;1.20;0.83;;;8.40;99.90;;;;;;2113067;28;20185;-67
2022/01/04 02:20:07;;;;;;;1.27;0.80;;;8.40;99.70;;;;;;2107577;28;20175;-66
2022/01/04 02:21:08;;;;;;;1.42;0.90;;;8.50;99.90;;;;;;2106966;28;20194;-66
2022/01/04 02:22:08;;;;;;;1.07;0.90;;;8.50;99.80;;;;;;2106855;28;20273;-66
2022/01/04 02:23:09;;;;;;;1.27;1.00;;;8.40;99.90;;;;;;2107060;28;20184;-67
2022/01/04 02:24:10;;;;;;;2.72;1.00;;;8.40;99.70;;;;;;2106904;28;20569;-66
2022/01/04 02:25:11;;;;;;;1.63;0.73;;;8.40;99.80;;;;;;2106839;28;20194;-66
2022/01/04 02:26:12;;;;;;;2.03;1.15;;;8.50;99.90;;;;;;2106323;28;20190;-66
2022/01/04 02:27:14;;;;;;;1.50;0.87;;;8.40;99.90;;;;;;2106437;28;20171;-66
2022/01/04 02:28:20;;;;;;;1.50;1.20;;;8.40;99.90;;;;;;2106991;28;20214;-66
2022/01/04 02:29:21;;;;;;;0.93;0.80;;;8.30;99.90;;;;;;2107000;28;20245;-66
2022/01/04 02:30:22;;;;;;;1.37;0.87;;;8.30;99.90;;;;;;2106975;28;20642;-66
2022/01/04 02:31:22;;;;;;;1.30;0.90;;;8.30;99.90;;;;;;2106923;28;20296;-67
2022/01/04 02:32:23;;;;;;;1.33;0.90;;;8.30;99.90;;;;;;2106485;28;20183;-68
2022/01/04 02:33:24;;;;;;;1.13;0.87;;;8.30;99.90;;;;;;2106380;28;20225;-65
2022/01/04 02:34:24;;;;;;;1.10;0.90;;;8.40;99.30;;;;;;2106699;28;20206;-66
2022/01/04 02:35:30;;;;;;;1.83;0.90;;;8.40;99.90;;;;;;2106885;28;20185;-66
2022/01/04 02:36:31;;;;;;;0.98;0.88;;;8.40;99.90;;;;;;2106991;28;20196;-66
2022/01/04 02:37:33;;;;;;;1.20;0.83;;;8.50;99.50;;;;;;2106964;28;20186;-67
2022/01/04 02:38:33;;;;;;;0.80;0.80;;;8.50;99.20;;;;;;2106865;28;20664;-66
2022/01/04 02:39:38;;;;;;;1.00;0.80;;;8.50;99.70;;;;;;2106937;28;20221;-66
2022/01/04 02:40:39;;;;;;;2.03;1.20;;;8.50;99.90;;;;;;2106907;28;20187;-66
2022/01/04 02:41:39;;;;;;;1.23;0.83;;;8.40;99.90;;;;;;2107025;28;20195;-67
2022/01/04 02:42:41;;;;;;;2.07;1.03;;;8.30;99.90;;;;;;2106959;28;20187;-66
2022/01/04 02:43:41;;;;;;;1.60;0.90;;;8.30;99.90;;;;;;2107076;28;20258;-67
2022/01/04 02:44:43;;;;;;;1.47;0.97;;;8.30;99.90;;;;;;2106605;28;20245;-65
2022/01/04 02:45:43;;;;;;;1.50;0.85;;;8.20;99.90;;;;;;2107072;28;20639;-66
2022/01/04 02:46:44;;;;;;;1.17;0.90;;;8.20;99.90;;;;;;2106833;28;20193;-66
2022/01/04 02:47:45;;;;;;;0.93;0.80;;;8.20;99.90;;;;;;2106886;28;20634;-66
2022/01/04 02:48:46;;;;;;;1.33;0.97;;;8.20;99.90;;;;;;2107006;28;20269;-66
2022/01/04 02:49:47;;;;;;;1.30;0.83;;;8.20;99.90;;;;;;2106978;28;20221;-66
2022/01/04 02:50:50;;;;;;;2.45;0.88;;;8.20;99.90;;;;;;2106723;28;20247;-67
2022/01/04 02:51:51;;;;;;;1.45;1.00;;;8.20;99.90;;;;;;2106909;28;20185;-67
2022/01/04 02:52:52;;;;;;;0.93;0.85;;;8.20;99.90;;;;;;2106887;28;20266;-66
2022/01/04 02:53:52;;;;;;;1.00;0.90;;;8.20;99.90;;;;;;2106846;28;20196;-67
2022/01/04 02:54:53;;;;;;;1.60;1.00;;;8.20;99.90;;;;;;2106662;28;20179;-66
2022/01/04 02:55:53;;;;;;;1.37;0.90;;;8.20;99.90;;;;;;2106793;28;20189;-67
2022/01/04 02:56:54;;;;;;;1.30;0.97;;;8.20;99.90;;;;;;2106707;28;20220;-68
2022/01/04 02:57:55;;;;;;;1.60;0.83;;;8.20;99.90;;;;;;2106702;28;20182;-66
2022/01/04 02:59:02;;;;;;;1.20;1.00;;;8.20;99.90;;;;;;2106778;28;20179;-66
2022/01/04 03:00:08;;;;;;;1.80;0.80;;;8.10;99.90;;;;;;2106993;28;20169;-66
2022/01/04 03:01:08;;;;;;;1.00;0.90;;;8.10;99.90;;;;;;2106567;28;20894;-66
2022/01/04 03:02:09;;;;;;;1.50;0.80;;;8.20;99.90;;;;;;2106774;28;20230;-67
2022/01/04 03:03:10;;;;;;;1.53;1.10;;;8.20;99.90;;;;;;2106662;28;20167;-66
2022/01/04 03:04:10;;;;;;;1.13;0.80;;;8.20;99.90;;;;;;2106757;28;20525;-67
2022/01/04 03:05:11;;;;;;;2.60;1.00;;;8.20;99.90;;;;;;2106712;28;20181;-66
2022/01/04 03:06:14;;;;;;;1.13;0.93;;;8.10;99.90;;;;;;2106693;28;20641;-67
2022/01/04 03:07:15;;;;;;;0.85;0.85;;;8.10;99.90;;;;;;2106899;28;20186;-67
2022/01/04 03:08:15;;;;;;;1.83;1.17;;;8.00;99.90;;;;;;2106723;28;20707;-66
2022/01/04 03:09:16;;;;;;;1.87;0.80;;;8.10;99.90;;;;;;2106839;28;20215;-67
2022/01/04 03:10:17;;;;;;;3.10;0.90;;;8.10;99.90;;;;;;2106724;28;20175;-66
2022/01/04 03:11:18;;;;;;;0.67;0.67;;;8.20;99.90;;;;;;2106699;28;20206;-66
2022/01/04 03:12:18;;;;;;;1.10;0.80;;;8.20;99.90;;;;;;2106785;28;20665;-67
2022/01/04 03:13:19;;;;;;;1.10;1.00;;;8.20;99.90;;;;;;2106735;28;20185;-66
2022/01/04 03:14:20;;;;;;;3.00;0.70;;;8.20;99.90;;;;;;2105867;28;20197;-66
2022/01/04 03:15:20;;;;;;;1.30;0.80;;;8.20;99.90;;;;;;2106537;28;20259;-66
2022/01/04 03:16:21;;;;;;;1.10;0.80;;;8.20;99.90;;;;;;2106605;28;20173;-66
2022/01/04 03:17:22;;;;;;;0.60;0.60;;;8.20;99.90;;;;;;2106344;28;20174;-66
2022/01/04 03:18:22;;;;;;;2.07;1.03;;;8.20;99.90;;;;;;2106511;28;20220;-66
2022/01/04 03:19:23;;;;;;;0.70;0.70;;;8.20;99.90;;;;;;2106520;28;20262;-66
2022/01/04 03:20:24;;;;;;;0.90;0.80;;;8.20;99.90;;;;;;2106436;28;20203;-66
2022/01/04 03:21:24;;;;;;;2.00;1.00;;;8.20;99.90;;;;;;2106436;28;20194;-66
2022/01/04 03:22:25;;;;;;;1.07;0.80;;;8.20;99.90;;;;;;2106418;28;20268;-66
2022/01/04 03:23:26;;;;;;;1.20;0.90;;;8.20;99.90;;;;;;2106469;28;20182;-66
2022/01/04 03:24:27;;;;;;;1.23;0.80;;;8.20;99.90;;;;;;2106371;28;20185;-66
2022/01/04 03:25:28;;;;;;;1.83;1.00;;;8.20;99.90;;;;;;2106424;28;20187;-66
2022/01/04 03:26:28;;;;;;;0.90;0.80;;;8.20;99.90;;;;;;2106377;28;20176;-67
2022/01/04 03:27:30;;;;;;;0.80;0.80;;;8.20;99.90;;;;;;2105747;28;20182;-66
2022/01/04 03:28:31;;;;;;;0.90;0.80;;;8.20;99.90;;;;;;2105790;28;20196;-66
2022/01/04 03:29:32;;;;;;;0.80;0.80;;;8.20;99.90;;;;;;2106532;28;20178;-66
2022/01/04 03:30:34;;;;;;;1.40;0.90;;;8.20;99.90;;;;;;2106348;28;20210;-66
2022/01/04 03:31:35;;;;;;;0.93;0.82;;;8.20;99.90;;;;;;2105643;28;20203;-66
2022/01/04 03:32:37;;;;;;;2.08;0.88;;;8.20;99.90;;;;;;2105765;28;20188;-66
2022/01/04 03:33:38;;;;;;;1.25;0.80;;;8.20;99.90;;;;;;2106294;28;20267;-66
2022/01/04 03:34:39;;;;;;;1.20;1.07;;;8.30;99.90;;;;;;2106067;28;20550;-66
2022/01/04 03:35:39;;;;;;;1.37;0.70;;;8.20;99.90;;;;;;2106354;28;20269;-66
2022/01/04 03:36:41;;;;;;;2.13;0.83;;;8.20;99.90;;;;;;2106302;28;20185;-66
2022/01/04 03:37:42;;;;;;;1.95;0.80;;;8.20;99.90;;;;;;2106366;28;20303;-66
2022/01/04 03:38:42;;;;;;;1.40;1.20;;;8.20;99.90;;;;;;2106231;28;20590;-66
2022/01/04 03:39:43;;;;;;;2.30;1.00;;;8.20;99.90;;;;;;2106369;28;20208;-67
2022/01/04 03:40:44;;;;;;;1.10;0.87;;;8.30;99.90;;;;;;2106270;28;20171;-66
2022/01/04 03:41:46;;;;;;;1.53;0.80;;;8.30;99.90;;;;;;2106275;28;20194;-66
2022/01/04 03:42:47;;;;;;;3.63;0.82;;;8.20;99.90;;;;;;2106367;28;20182;-66
2022/01/04 03:43:49;;;;;;;1.63;0.90;;;8.20;99.90;;;;;;2105621;28;20184;-66
2022/01/04 03:44:49;;;;;;;1.13;0.90;;;8.20;99.90;;;;;;2097343;28;20235;-66
2022/01/04 03:45:51;;;;;;;1.13;0.90;;;8.10;99.90;;;;;;2105746;28;20225;-66
2022/01/04 03:46:54;;;;;;;1.65;0.82;;;8.20;99.90;;;;;;2106145;28;20254;-67
2022/01/04 03:47:55;;;;;;;0.93;0.77;;;8.10;99.90;;;;;;2105673;28;20203;-66
2022/01/04 03:48:55;;;;;;;0.70;0.60;;;8.20;99.90;;;;;;2105551;28;20178;-66
2022/01/04 03:49:56;;;;;;;1.13;0.80;;;8.10;99.90;;;;;;2105693;28;20179;-67
2022/01/04 03:50:56;;;;;;;1.00;0.77;;;8.10;99.90;;;;;;2105653;28;20214;-67
2022/01/04 03:51:57;;;;;;;0.70;0.70;;;8.10;99.90;;;;;;2106245;28;20185;-66
2022/01/04 03:52:58;;;;;;;1.37;0.80;;;8.10;99.90;;;;;;2106781;28;20189;-67
2022/01/04 03:53:58;;;;;;;1.03;0.73;;;8.10;99.90;;;;;;2106562;28;20198;-67
2022/01/04 03:54:59;;;;;;;0.90;0.73;;;8.20;99.90;;;;;;2106047;28;20542;-67
2022/01/04 03:56:00;;;;;;;1.17;0.90;;;8.20;99.90;;;;;;2107832;28;20220;-67
2022/01/04 03:57:01;;;;;;;2.93;0.73;;;8.10;99.90;;;;;;2114442;28;20179;-67
2022/01/04 03:58:01;;;;;;;0.87;0.70;;;8.10;99.90;;;;;;2114533;28;20693;-67
2022/01/04 03:59:03;;;;;;;0.77;0.70;;;8.10;99.90;;;;;;2114655;28;20176;-66
2022/01/04 04:00:08;;;;;;;1.05;0.65;;;8.10;99.90;;;;;;2114491;28;20264;-67
2022/01/04 04:01:08;;;;;;;1.15;0.70;;;8.10;99.90;;;;;;2114489;28;20669;-66
2022/01/04 04:02:09;;;;;;;0.70;0.70;;;8.10;99.90;;;;;;2114513;28;20204;-67
2022/01/04 04:03:09;;;;;;;1.33;0.70;;;8.20;99.90;;;;;;2114608;28;20196;-67
2022/01/04 04:04:11;;;;;;;1.50;0.70;;;8.20;99.90;;;;;;2114556;28;20170;-66
2022/01/04 04:05:13;;;;;;;1.27;0.70;;;8.20;99.90;;;;;;2114377;28;20174;-67
2022/01/04 04:06:13;;;;;;;0.70;0.60;;;8.20;99.90;;;;;;2114524;28;20550;-67
2022/01/04 04:07:14;;;;;;;1.37;0.70;;;8.20;99.90;;;;;;2114562;28;20176;-67
2022/01/04 04:08:16;;;;;;;0.43;0.43;;;8.20;99.90;;;;;;2114512;28;20185;-67
2022/01/04 04:09:16;;;;;;;0.50;0.50;;;8.20;99.90;;;;;;2114590;28;20207;-66
2022/01/04 04:10:17;;;;;;;0.60;0.60;;;8.20;99.90;;;;;;2114473;28;20209;-68
2022/01/04 04:11:18;;;;;;;1.00;0.70;;;8.30;99.90;;;;;;2114537;28;20200;-67
2022/01/04 04:12:18;;;;;;;2.00;0.73;;;8.20;99.90;;;;;;2114526;28;20231;-67
2022/01/04 04:13:19;;;;;;;0.77;0.60;;;8.20;99.90;;;;;;2113909;28;20178;-66
2022/01/04 04:14:20;;;;;;;0.57;0.57;;;8.20;99.90;;;;;;2105536;28;20218;-67
2022/01/04 04:15:21;;;;;;;0.90;0.70;;;8.20;99.90;;;;;;2113839;28;20162;-66
2022/01/04 04:16:22;;;;;;;0.73;0.70;;;8.20;99.90;;;;;;2114432;28;20538;-67
2022/01/04 04:17:22;;;;;;;0.57;0.57;;;8.10;99.90;;;;;;2114396;28;20262;-67
2022/01/04 04:18:23;;;;;;;0.93;0.63;;;8.10;99.90;;;;;;2114591;28;20151;-67
2022/01/04 04:19:23;;;;;;;0.83;0.53;;;8.10;99.90;;;;;;2114556;28;20193;-67
2022/01/04 04:20:24;;;;;;;1.17;0.67;;;8.10;99.90;;;;;;2113930;28;20207;-67
2022/01/04 04:21:25;;;;;;;0.63;0.60;;;8.10;99.90;;;;;;2105460;28;20235;-66
2022/01/04 04:22:26;;;;;;;1.70;0.60;;;8.20;99.90;;;;;;2105521;28;20170;-67
2022/01/04 04:23:26;;;;;;;0.67;0.60;;;8.10;99.90;;;;;;2105592;28;20170;-67
2022/01/04 04:24:27;;;;;;;0.63;0.60;;;8.20;99.90;;;;;;2113809;28;20922;-67
2022/01/04 04:25:28;;;;;;;1.03;0.53;;;8.20;99.90;;;;;;2111392;28;20268;-66
2022/01/04 04:26:28;;;;;;;4.20;0.70;;;8.20;99.90;;;;;;2108776;28;20174;-67
2022/01/04 04:27:29;;;;;;;0.87;0.67;;;8.30;99.90;;;;;;2108844;28;20644;-66
2022/01/04 04:28:30;;;;;;;0.53;0.53;;;8.20;99.90;;;;;;2108831;28;20547;-66
2022/01/04 04:29:32;;;;;;;0.68;0.50;;;8.20;99.90;;;;;;2108863;28;20550;-66
2022/01/04 04:30:34;;;;;;;0.60;0.60;;;8.30;99.90;;;;;;2108853;28;20894;-67
2022/01/04 04:31:35;;;;;;;0.90;0.73;;;8.20;99.90;;;;;;2108132;28;20201;-67
2022/01/04 04:32:35;;;;;;;1.33;0.50;;;8.30;99.90;;;;;;2108296;28;20704;-67
2022/01/04 04:33:36;;;;;;;1.60;0.70;;;8.30;99.90;;;;;;2108777;28;20736;-66
2022/01/04 04:34:37;;;;;;;0.60;0.60;;;8.30;99.90;;;;;;2108670;28;20714;-67
2022/01/04 04:35:37;;;;;;;0.70;0.70;;;8.40;99.90;;;;;;2108806;28;20677;-66
2022/01/04 04:36:38;;;;;;;0.80;0.73;;;8.40;99.90;;;;;;2108795;28;20183;-66
2022/01/04 04:37:39;;;;;;;0.80;0.80;;;8.30;99.90;;;;;;2108742;28;20181;-67
2022/01/04 04:38:39;;;;;;;0.80;0.80;;;8.40;99.90;;;;;;2108855;28;20171;-66
2022/01/04 04:39:40;;;;;;;1.63;0.63;;;8.40;99.90;;;;;;2108771;28;20568;-67
2022/01/04 04:40:41;;;;;;;1.00;0.73;;;8.40;99.90;;;;;;2108930;28;20182;-67
2022/01/04 04:41:41;;;;;;;1.20;0.83;;;8.50;99.90;;;;;;2108698;28;20745;-66
2022/01/04 04:42:42;;;;;;;0.57;0.53;;;8.50;99.90;;;;;;2108758;28;20178;-66
2022/01/04 04:43:43;;;;;;;1.03;0.70;;;8.50;99.90;;;;;;2108758;28;20185;-66
2022/01/04 04:44:45;;;;;;;0.70;0.70;;;8.50;99.90;;;;;;2108693;28;20641;-67
2022/01/04 04:45:45;;;;;;;1.00;0.70;;;8.50;99.90;;;;;;2108772;28;20177;-67
2022/01/04 04:46:46;;;;;;;0.53;0.53;;;8.50;99.90;;;;;;2108743;28;20567;-66
2022/01/04 04:47:47;;;;;;;0.60;0.60;;;8.50;99.90;;;;;;2108650;28;20187;-66
2022/01/04 04:48:47;;;;;;;0.70;0.60;;;8.60;99.90;;;;;;2108769;28;20190;-66
2022/01/04 04:49:48;;;;;;;0.90;0.60;;;8.50;99.90;;;;;;2108185;28;20182;-66
2022/01/04 04:50:49;;;;;;;0.73;0.60;;;8.60;99.90;;;;;;2108127;28;20177;-67
2022/01/04 04:51:49;;;;;;;0.90;0.60;;;8.60;99.90;;;;;;2108734;28;20270;-66
2022/01/04 04:52:51;;;;;;;1.47;0.70;;;8.70;99.90;;;;;;2108809;28;20170;-66
2022/01/04 04:53:52;;;;;;;0.73;0.63;;;8.60;99.90;;;;;;2108620;28;20262;-66
2022/01/04 04:54:52;;;;;;;0.90;0.83;;;8.60;99.90;;;;;;2108773;28;20220;-66
2022/01/04 04:55:53;;;;;;;0.60;0.60;;;8.60;99.90;;;;;;2108732;28;20424;-67
2022/01/04 04:56:54;;;;;;;0.83;0.70;;;8.60;99.90;;;;;;2108723;28;20182;-66
2022/01/04 04:57:55;;;;;;;1.53;0.90;;;8.60;99.90;;;;;;2108624;28;20556;-66
2022/01/04 04:58:55;;;;;;;1.17;0.87;;;8.60;99.90;;;;;;2108699;28;20190;-67
2022/01/04 04:59:56;;;;;;;0.87;0.80;;;8.60;99.90;;;;;;2108181;28;20199;-66
2022/01/04 05:00:57;;;;;;;0.80;0.80;;;8.70;99.90;;;;;;2108076;28;20204;-66
2022/01/04 05:01:58;;;;;;;0.80;0.80;;;8.60;99.90;;;;;;2108692;28;20192;-67
2022/01/04 05:02:58;;;;;;;0.70;0.60;;;8.60;99.90;;;;;;2108664;28;20198;-66
2022/01/04 05:03:59;;;;;;;0.67;0.57;;;8.60;99.90;;;;;;2108624;28;20524;-67
2022/01/04 05:05:00;;;;;;;0.60;0.60;;;8.70;99.90;;;;;;2108571;28;20202;-66
2022/01/04 05:06:00;;;;;;;1.23;0.80;;;8.60;99.90;;;;;;2108682;28;20262;-67
2022/01/04 05:07:01;;;;;;;0.53;0.50;;;8.70;99.90;;;;;;2108631;28;20182;-66
2022/01/04 05:08:02;;;;;;;0.70;0.70;;;8.60;99.90;;;;;;2108812;28;20186;-67
2022/01/04 05:09:03;;;;;;;3.87;0.77;;;8.60;99.90;;;;;;2108726;28;20652;-66
2022/01/04 05:10:06;;;;;;;0.70;0.70;;;8.60;99.90;;;;;;2108733;28;20806;-66
2022/01/04 05:11:07;;;;;;;0.75;0.70;;;8.60;99.90;;;;;;2108658;28;20193;-66
2022/01/04 05:12:09;;;;;;;2.83;0.60;;;8.60;99.90;;;;;;2108714;28;20671;-66
2022/01/04 05:13:09;;;;;;;2.50;0.70;;;8.70;99.90;;;;;;2108631;28;20708;-66
2022/01/04 05:14:10;;;;;;;0.60;0.60;;;8.70;99.90;;;;;;2108647;28;20182;-67
2022/01/04 05:15:11;;;;;;;0.87;0.60;;;8.70;99.90;;;;;;2108441;28;20628;-67
2022/01/04 05:16:12;;;;;;;0.53;0.50;;;8.80;99.90;;;;;;2108742;28;20633;-67
2022/01/04 05:17:13;;;;;;;0.70;0.63;;;8.80;99.90;;;;;;2107959;28;20419;-66
2022/01/04 05:18:15;;;;;;;0.65;0.63;;;8.80;99.90;;;;;;2107980;28;20185;-67
2022/01/04 05:19:15;;;;;;;1.13;0.73;;;8.80;99.90;;;;;;2108647;28;20181;-67
2022/01/04 05:20:16;;;;;;;1.17;0.70;;;8.70;99.90;;;;;;2107998;28;20265;-67
2022/01/04 05:21:17;;;;;;;0.70;0.67;;;8.70;99.90;;;;;;2107979;28;20232;-66
2022/01/04 05:22:17;;;;;;;1.33;0.70;;;8.70;99.90;;;;;;2108597;28;20273;-67
2022/01/04 05:23:18;;;;;;;0.57;0.50;;;8.80;99.90;;;;;;2108616;28;20193;-67
2022/01/04 05:24:19;;;;;;;1.00;0.73;;;8.80;99.90;;;;;;2108698;28;20178;-66
2022/01/04 05:25:20;;;;;;;1.00;0.57;;;8.80;99.90;;;;;;2108433;28;20236;-66